createdAt,value
2022-08-25T00:00:53.174Z,60.61
2022-08-25T00:01:58.904Z,60.67
2022-08-25T00:03:00.610Z,60.70
2022-08-25T00:04:05.550Z,60.71
2022-08-25T00:05:07.667Z,60.74
2022-08-25T00:06:11.838Z,60.74
2022-08-25T00:07:13.530Z,60.76
2022-08-25T00:08:20.491Z,60.77
2022-08-25T00:09:27.790Z,60.79
2022-08-25T00:10:29.873Z,60.78
2022-08-25T00:11:34.271Z,60.75
2022-08-25T00:12:36.022Z,60.75
2022-08-25T00:13:41.098Z,60.73
2022-08-25T00:14:43.472Z,60.69
2022-08-25T00:15:46.674Z,60.64
2022-08-25T00:16:49.115Z,60.59
2022-08-25T00:17:51.603Z,60.58
2022-08-25T00:18:56.775Z,60.55
2022-08-25T00:19:58.452Z,60.51
2022-08-25T00:21:00.115Z,60.48
2022-08-25T00:22:03.235Z,60.45
2022-08-25T00:23:05.013Z,60.41
2022-08-25T00:24:11.929Z,60.40
2022-08-25T00:25:13.686Z,60.37
2022-08-25T00:26:15.952Z,60.34
2022-08-25T00:27:18.076Z,60.30
2022-08-25T00:28:19.751Z,60.22
2022-08-25T00:29:23.621Z,60.15
2022-08-25T00:30:25.500Z,60.05
2022-08-25T00:31:37.787Z,59.97
2022-08-25T00:32:40.848Z,59.93
2022-08-25T00:33:44.820Z,59.86
2022-08-25T00:34:46.836Z,59.80
2022-08-25T00:35:48.557Z,59.74
2022-08-25T00:36:51.874Z,59.70
2022-08-25T00:37:53.596Z,59.63
2022-08-25T00:38:56.268Z,59.55
2022-08-25T00:39:58.643Z,59.43
2022-08-25T00:41:06.236Z,59.08
2022-08-25T00:42:15.054Z,59.06
2022-08-25T00:43:18.761Z,60.01
2022-08-25T00:44:20.985Z,61.10
2022-08-25T00:45:23.388Z,62.05
2022-08-25T00:46:32.920Z,63.02
2022-08-25T00:47:34.978Z,64.75
2022-08-25T00:48:42.248Z,64.96
2022-08-25T00:49:49.662Z,64.43
2022-08-25T00:50:51.407Z,63.71
2022-08-25T00:52:05.990Z,63.20
2022-08-25T00:53:08.742Z,62.61
2022-08-25T00:54:23.410Z,62.17
2022-08-25T00:55:33.953Z,61.73
2022-08-25T00:56:36.601Z,61.39
2022-08-25T00:57:55.393Z,61.16
2022-08-25T00:58:59.273Z,61.01
2022-08-25T01:00:05.583Z,60.94
2022-08-25T01:01:07.759Z,60.89
2022-08-25T01:02:10.231Z,60.87
2022-08-25T01:03:17.422Z,60.81
2022-08-25T01:04:19.838Z,60.84
2022-08-25T01:05:21.604Z,60.89
2022-08-25T01:06:23.924Z,60.92
2022-08-25T01:07:25.766Z,60.94
2022-08-25T01:08:32.324Z,60.95
2022-08-25T01:09:35.285Z,60.96
2022-08-25T01:10:41.367Z,60.99
2022-08-25T01:11:45.506Z,61.02
2022-08-25T01:12:47.464Z,61.01
2022-08-25T01:13:56.492Z,60.98
2022-08-25T01:14:59.015Z,60.94
2022-08-25T01:16:02.011Z,60.89
2022-08-25T01:17:04.454Z,60.84
2022-08-25T01:18:06.359Z,60.79
2022-08-25T01:19:09.365Z,60.77
2022-08-25T01:20:19.900Z,60.69
2022-08-25T01:21:24.302Z,60.60
2022-08-25T01:22:26.771Z,60.50
2022-08-25T01:23:28.483Z,60.41
2022-08-25T01:24:47.154Z,60.31
2022-08-25T01:26:11.242Z,60.18
2022-08-25T01:27:13.444Z,59.98
2022-08-25T01:28:16.626Z,59.88
2022-08-25T01:29:20.977Z,59.79
2022-08-25T01:30:24.517Z,59.68
2022-08-25T01:31:28.081Z,59.60
2022-08-25T01:32:34.850Z,59.54
2022-08-25T01:33:36.504Z,59.50
2022-08-25T01:34:42.008Z,59.48
2022-08-25T01:35:44.081Z,59.43
2022-08-25T01:36:45.997Z,59.42
2022-08-25T01:37:48.246Z,59.11
2022-08-25T01:38:50.557Z,58.87
2022-08-25T01:39:52.239Z,59.47
2022-08-25T01:40:53.948Z,60.40
2022-08-25T01:41:58.701Z,61.53
2022-08-25T01:43:18.214Z,62.99
2022-08-25T01:44:19.953Z,64.55
2022-08-25T01:45:21.809Z,65.08
2022-08-25T01:46:23.603Z,64.78
2022-08-25T01:47:25.647Z,64.17
2022-08-25T01:48:27.325Z,63.56
2022-08-25T01:49:28.961Z,63.05
2022-08-25T01:50:30.817Z,62.61
2022-08-25T01:51:46.971Z,62.29
2022-08-25T01:52:51.852Z,61.97
2022-08-25T01:53:53.498Z,61.71
2022-08-25T01:54:55.542Z,61.50
2022-08-25T01:56:05.555Z,61.33
2022-08-25T01:57:11.509Z,61.24
2022-08-25T01:58:13.171Z,61.15
2022-08-25T01:59:23.843Z,61.03
2022-08-25T02:00:26.138Z,60.90
2022-08-25T02:01:28.573Z,60.77
2022-08-25T02:02:31.621Z,60.67
2022-08-25T02:03:42.375Z,60.55
2022-08-25T02:04:44.436Z,60.47
2022-08-25T02:05:48.070Z,60.40
2022-08-25T02:06:50.411Z,60.32
2022-08-25T02:07:52.146Z,60.26
2022-08-25T02:08:58.408Z,60.21
2022-08-25T02:10:00.694Z,60.14
2022-08-25T02:11:05.549Z,60.09
2022-08-25T02:12:09.530Z,60.08
2022-08-25T02:13:11.258Z,60.04
2022-08-25T02:14:18.092Z,60.03
2022-08-25T02:15:19.961Z,60.01
2022-08-25T02:16:28.327Z,59.96
2022-08-25T02:17:30.136Z,59.92
2022-08-25T02:18:31.895Z,59.87
2022-08-25T02:19:33.937Z,59.82
2022-08-25T02:20:35.655Z,59.79
2022-08-25T02:21:37.983Z,59.76
2022-08-25T02:22:39.680Z,59.74
2022-08-25T02:23:45.319Z,59.70
2022-08-25T02:24:48.033Z,59.67
2022-08-25T02:25:49.816Z,59.64
2022-08-25T02:26:51.605Z,59.60
2022-08-25T02:27:53.852Z,59.60
2022-08-25T02:28:56.288Z,59.58
2022-08-25T02:29:57.998Z,59.55
2022-08-25T02:31:01.635Z,59.51
2022-08-25T02:32:04.147Z,59.46
2022-08-25T02:33:06.490Z,59.39
2022-08-25T02:34:10.254Z,58.98
2022-08-25T02:35:12.837Z,59.08
2022-08-25T02:36:14.921Z,59.94
2022-08-25T02:37:17.023Z,61.06
2022-08-25T02:38:18.870Z,62.16
2022-08-25T02:39:20.581Z,63.55
2022-08-25T02:40:22.803Z,64.90
2022-08-25T02:41:31.087Z,65.10
2022-08-25T02:42:33.806Z,64.52
2022-08-25T02:43:35.537Z,63.80
2022-08-25T02:44:37.279Z,63.17
2022-08-25T02:45:39.291Z,62.61
2022-08-25T02:46:41.036Z,62.21
2022-08-25T02:47:42.994Z,61.86
2022-08-25T02:48:45.182Z,61.61
2022-08-25T02:49:46.852Z,61.40
2022-08-25T02:50:51.625Z,61.23
2022-08-25T02:51:54.521Z,61.07
2022-08-25T02:52:56.209Z,60.96
2022-08-25T02:54:00.080Z,60.85
2022-08-25T02:55:09.246Z,60.75
2022-08-25T02:56:12.659Z,60.62
2022-08-25T02:57:15.835Z,60.49
2022-08-25T02:58:17.521Z,60.37
2022-08-25T02:59:19.542Z,60.28
2022-08-25T03:00:21.510Z,60.19
2022-08-25T03:01:28.448Z,60.09
2022-08-25T03:02:30.810Z,60.02
2022-08-25T03:03:37.524Z,59.96
2022-08-25T03:04:41.086Z,59.90
2022-08-25T03:05:43.489Z,59.83
2022-08-25T03:06:45.760Z,59.77
2022-08-25T03:07:47.518Z,59.74
2022-08-25T03:08:50.562Z,59.69
2022-08-25T03:09:52.254Z,59.65
2022-08-25T03:10:53.998Z,59.62
2022-08-25T03:11:55.662Z,59.59
2022-08-25T03:12:57.737Z,59.55
2022-08-25T03:13:59.373Z,59.51
2022-08-25T03:15:01.634Z,59.45
2022-08-25T03:16:10.885Z,59.40
2022-08-25T03:17:13.254Z,58.98
2022-08-25T03:18:15.592Z,59.01
2022-08-25T03:19:18.091Z,59.88
2022-08-25T03:20:21.366Z,60.97
2022-08-25T03:21:23.132Z,62.27
2022-08-25T03:22:24.875Z,63.72
2022-08-25T03:23:29.665Z,64.99
2022-08-25T03:24:31.777Z,65.08
2022-08-25T03:25:52.579Z,64.56
2022-08-25T03:26:56.438Z,63.68
2022-08-25T03:27:58.289Z,63.13
2022-08-25T03:29:05.013Z,62.75
2022-08-25T03:30:07.609Z,62.36
2022-08-25T03:31:10.506Z,62.10
2022-08-25T03:32:12.239Z,61.86
2022-08-25T03:33:14.426Z,61.69
2022-08-25T03:34:17.971Z,61.52
2022-08-25T03:35:20.028Z,61.40
2022-08-25T03:36:22.050Z,61.28
2022-08-25T03:37:23.677Z,61.18
2022-08-25T03:38:26.121Z,61.12
2022-08-25T03:39:28.940Z,60.96
2022-08-25T03:40:30.799Z,60.86
2022-08-25T03:41:32.806Z,60.79
2022-08-25T03:42:35.094Z,60.65
2022-08-25T03:43:36.740Z,60.59
2022-08-25T03:44:38.377Z,60.54
2022-08-25T03:45:42.842Z,60.48
2022-08-25T03:46:47.711Z,60.44
2022-08-25T03:47:51.119Z,60.39
2022-08-25T03:48:53.869Z,60.38
2022-08-25T03:49:56.280Z,60.37
2022-08-25T03:50:58.000Z,60.35
2022-08-25T03:51:59.672Z,60.34
2022-08-25T03:53:02.341Z,60.33
2022-08-25T03:54:05.344Z,60.34
2022-08-25T03:55:11.689Z,60.36
2022-08-25T03:56:13.460Z,60.38
2022-08-25T03:57:15.876Z,60.39
2022-08-25T03:58:18.148Z,60.41
2022-08-25T03:59:20.281Z,60.61
2022-08-25T04:00:23.682Z,60.65
2022-08-25T04:01:26.061Z,60.69
2022-08-25T04:02:27.991Z,60.75
2022-08-25T04:03:29.713Z,60.76
2022-08-25T04:04:31.862Z,60.76
2022-08-25T04:05:33.665Z,60.73
2022-08-25T04:06:38.206Z,60.67
2022-08-25T04:07:40.222Z,60.58
2022-08-25T04:08:42.278Z,60.50
2022-08-25T04:09:44.137Z,60.43
2022-08-25T04:10:45.827Z,60.37
2022-08-25T04:11:47.669Z,60.30
2022-08-25T04:12:56.010Z,60.21
2022-08-25T04:13:59.194Z,60.17
2022-08-25T04:15:01.224Z,60.16
2022-08-25T04:16:10.240Z,60.16
2022-08-25T04:17:11.989Z,60.19
2022-08-25T04:18:14.191Z,60.24
2022-08-25T04:19:16.011Z,60.23
2022-08-25T04:20:18.865Z,60.24
2022-08-25T04:21:22.130Z,60.38
2022-08-25T04:22:24.205Z,60.43
2022-08-25T04:23:25.881Z,60.43
2022-08-25T04:24:27.578Z,60.42
2022-08-25T04:25:29.856Z,60.39
2022-08-25T04:26:36.410Z,60.39
2022-08-25T04:27:38.092Z,60.38
2022-08-25T04:28:40.020Z,60.35
2022-08-25T04:29:41.694Z,60.33
2022-08-25T04:30:43.802Z,60.30
2022-08-25T04:31:48.695Z,60.28
2022-08-25T04:32:50.953Z,60.30
2022-08-25T04:33:52.997Z,60.29
2022-08-25T04:34:54.694Z,60.28
2022-08-25T04:35:56.414Z,60.29
2022-08-25T04:37:03.590Z,60.29
2022-08-25T04:38:05.870Z,60.28
2022-08-25T04:39:07.988Z,60.31
2022-08-25T04:40:11.001Z,60.34
2022-08-25T04:41:15.495Z,60.32
2022-08-25T04:42:17.194Z,60.28
2022-08-25T04:43:18.833Z,60.23
2022-08-25T04:44:20.505Z,60.15
2022-08-25T04:45:22.151Z,60.04
2022-08-25T04:46:28.625Z,59.95
2022-08-25T04:47:31.294Z,59.97
2022-08-25T04:48:33.707Z,59.96
2022-08-25T04:49:37.092Z,59.96
2022-08-25T04:50:39.850Z,59.93
2022-08-25T04:51:42.748Z,59.91
2022-08-25T04:52:44.493Z,59.95
2022-08-25T04:53:46.968Z,59.96
2022-08-25T04:54:48.624Z,59.97
2022-08-25T04:55:50.331Z,60.15
2022-08-25T04:56:54.603Z,60.20
2022-08-25T04:57:59.645Z,60.32
2022-08-25T04:59:05.765Z,60.39
2022-08-25T05:00:08.176Z,60.44
2022-08-25T05:01:15.867Z,60.48
2022-08-25T05:02:17.668Z,60.52
2022-08-25T05:03:19.337Z,60.60
2022-08-25T05:04:28.590Z,60.64
2022-08-25T05:05:32.669Z,60.78
2022-08-25T05:06:35.708Z,60.96
2022-08-25T05:07:37.342Z,61.05
2022-08-25T05:08:40.021Z,61.15
2022-08-25T05:09:41.877Z,61.26
2022-08-25T05:10:43.874Z,61.41
2022-08-25T05:11:45.665Z,61.45
2022-08-25T05:12:49.163Z,61.55
2022-08-25T05:13:52.933Z,61.66
2022-08-25T05:14:54.770Z,61.72
2022-08-25T05:16:00.280Z,61.71
2022-08-25T05:17:02.192Z,61.67
2022-08-25T05:18:04.732Z,61.74
2022-08-25T05:19:07.281Z,61.78
2022-08-25T05:20:09.434Z,61.78
2022-08-25T05:21:15.409Z,61.77
2022-08-25T05:22:17.198Z,61.74
2022-08-25T05:23:18.986Z,61.76
2022-08-25T05:24:22.053Z,61.77
2022-08-25T05:25:24.480Z,61.92
2022-08-25T05:26:30.742Z,61.98
2022-08-25T05:27:34.285Z,61.97
2022-08-25T05:28:35.937Z,61.94
2022-08-25T05:29:37.587Z,61.89
2022-08-25T05:30:41.282Z,61.88
2022-08-25T05:31:48.343Z,61.91
2022-08-25T05:32:52.329Z,61.88
2022-08-25T05:33:56.025Z,61.87
2022-08-25T05:34:57.694Z,61.87
2022-08-25T05:35:59.660Z,61.83
2022-08-25T05:37:03.315Z,61.81
2022-08-25T05:38:06.405Z,61.75
2022-08-25T05:39:08.155Z,61.71
2022-08-25T05:40:10.292Z,61.67
2022-08-25T05:41:17.997Z,61.68
2022-08-25T05:42:19.841Z,61.73
2022-08-25T05:43:21.551Z,61.78
2022-08-25T05:44:23.267Z,61.79
2022-08-25T05:45:25.095Z,61.77
2022-08-25T05:46:26.946Z,61.80
2022-08-25T05:47:28.638Z,61.79
2022-08-25T05:48:30.308Z,61.74
2022-08-25T05:49:31.964Z,61.66
2022-08-25T05:50:33.634Z,61.59
2022-08-25T05:51:35.365Z,61.65
2022-08-25T05:52:37.202Z,61.66
2022-08-25T05:53:42.226Z,61.62
2022-08-25T05:54:44.170Z,61.61
2022-08-25T05:55:45.990Z,61.61
2022-08-25T05:56:47.758Z,61.62
2022-08-25T05:57:49.775Z,61.66
2022-08-25T05:58:51.462Z,61.67
2022-08-25T05:59:53.246Z,61.66
2022-08-25T06:00:56.036Z,61.66
2022-08-25T06:02:16.478Z,61.65
2022-08-25T06:03:18.624Z,61.70
2022-08-25T06:04:22.457Z,61.78
2022-08-25T06:05:24.148Z,61.82
2022-08-25T06:06:26.257Z,61.85
2022-08-25T06:07:28.307Z,61.96
2022-08-25T06:08:33.576Z,62.06
2022-08-25T06:09:38.697Z,62.10
2022-08-25T06:10:40.362Z,62.14
2022-08-25T06:11:42.842Z,62.20
2022-08-25T06:12:46.165Z,62.27
2022-08-25T06:13:48.157Z,62.32
2022-08-25T06:14:50.017Z,62.43
2022-08-25T06:15:57.773Z,62.42
2022-08-25T06:17:02.737Z,62.34
2022-08-25T06:18:04.698Z,62.34
2022-08-25T06:19:09.814Z,62.35
2022-08-25T06:20:22.418Z,62.33
2022-08-25T06:21:27.517Z,62.33
2022-08-25T06:22:29.211Z,62.32
2022-08-25T06:23:30.861Z,62.36
2022-08-25T06:24:33.297Z,62.40
2022-08-25T06:25:35.219Z,62.41
2022-08-25T06:26:37.514Z,62.47
2022-08-25T06:27:40.124Z,62.47
2022-08-25T06:28:41.806Z,62.50
2022-08-25T06:29:43.547Z,62.48
2022-08-25T06:30:46.145Z,62.52
2022-08-25T06:31:49.897Z,62.66
2022-08-25T06:32:52.406Z,62.74
2022-08-25T06:33:54.090Z,62.72
2022-08-25T06:34:55.941Z,62.66
2022-08-25T06:35:58.373Z,62.68
2022-08-25T06:37:00.075Z,62.64
2022-08-25T06:38:01.753Z,62.62
2022-08-25T06:39:04.512Z,62.70
2022-08-25T06:40:07.471Z,62.74
2022-08-25T06:41:13.007Z,62.65
2022-08-25T06:42:14.785Z,62.56
2022-08-25T06:43:16.514Z,62.45
2022-08-25T06:44:18.576Z,62.27
2022-08-25T06:45:21.021Z,62.02
2022-08-25T06:46:36.116Z,62.11
2022-08-25T06:47:38.639Z,62.14
2022-08-25T06:48:40.925Z,62.31
2022-08-25T06:49:43.968Z,62.28
2022-08-25T06:50:45.865Z,62.26
2022-08-25T06:51:48.852Z,62.22
2022-08-25T06:52:52.200Z,62.22
2022-08-25T06:53:54.566Z,62.43
2022-08-25T06:54:56.205Z,62.32
2022-08-25T06:56:02.257Z,62.28
2022-08-25T06:57:07.454Z,62.20
2022-08-25T06:58:11.132Z,62.19
2022-08-25T06:59:13.298Z,62.14
2022-08-25T07:00:15.339Z,62.09
2022-08-25T07:01:22.305Z,62.05
2022-08-25T07:02:24.076Z,61.90
2022-08-25T07:03:25.947Z,61.68
2022-08-25T07:04:27.928Z,61.63
2022-08-25T07:05:44.183Z,61.64
2022-08-25T07:06:46.839Z,61.48
2022-08-25T07:07:49.269Z,61.40
2022-08-25T07:08:51.304Z,61.60
2022-08-25T07:09:52.982Z,61.64
2022-08-25T07:10:55.243Z,61.58
2022-08-25T07:11:57.103Z,61.60
2022-08-25T07:12:58.750Z,61.67
2022-08-25T07:14:02.957Z,61.80
2022-08-25T07:15:21.198Z,61.84
2022-08-25T07:16:24.191Z,61.85
2022-08-25T07:17:32.001Z,61.85
2022-08-25T07:18:34.940Z,61.76
2022-08-25T07:19:36.902Z,61.67
2022-08-25T07:20:41.011Z,61.65
2022-08-25T07:21:45.412Z,61.64
2022-08-25T07:22:48.366Z,61.53
2022-08-25T07:23:50.092Z,61.56
2022-08-25T07:24:51.770Z,61.69
2022-08-25T07:25:54.538Z,61.72
2022-08-25T07:26:56.218Z,61.67
2022-08-25T07:27:59.006Z,61.56
2022-08-25T07:29:03.155Z,61.45
2022-08-25T07:30:07.748Z,61.40
2022-08-25T07:31:10.796Z,61.41
2022-08-25T07:32:12.589Z,61.39
2022-08-25T07:33:14.313Z,61.35
2022-08-25T07:34:34.593Z,61.47
2022-08-25T07:35:37.841Z,61.47
2022-08-25T07:36:39.850Z,61.34
2022-08-25T07:37:49.275Z,61.39
2022-08-25T07:38:51.753Z,61.54
2022-08-25T07:39:53.628Z,61.64
2022-08-25T07:41:04.553Z,61.74
2022-08-25T07:42:11.998Z,61.74
2022-08-25T07:43:14.115Z,61.64
2022-08-25T07:44:15.849Z,61.68
2022-08-25T07:45:20.690Z,61.65
2022-08-25T07:46:22.880Z,61.57
2022-08-25T07:47:24.622Z,61.35
2022-08-25T07:48:27.393Z,61.26
2022-08-25T07:49:35.929Z,61.20
2022-08-25T07:50:47.686Z,61.03
2022-08-25T07:52:05.360Z,60.95
2022-08-25T07:53:10.125Z,60.89
2022-08-25T07:54:12.302Z,60.86
2022-08-25T07:55:17.800Z,60.72
2022-08-25T07:56:20.665Z,60.66
2022-08-25T07:57:24.568Z,60.66
2022-08-25T07:58:26.357Z,60.74
2022-08-25T07:59:28.144Z,60.76
2022-08-25T08:00:33.395Z,60.69
2022-08-25T08:01:36.127Z,60.59
2022-08-25T08:02:41.484Z,60.49
2022-08-25T08:03:51.232Z,60.46
2022-08-25T08:04:53.761Z,60.47
2022-08-25T08:05:56.576Z,60.52
2022-08-25T08:06:58.229Z,60.64
2022-08-25T08:08:01.068Z,60.76
2022-08-25T08:09:03.630Z,60.90
2022-08-25T08:10:37.019Z,61.00
2022-08-25T08:11:37.071Z,60.68
2022-08-25T08:12:39.520Z,60.59
2022-08-25T08:13:41.575Z,60.53
2022-08-25T08:14:45.005Z,60.49
2022-08-25T08:15:48.376Z,60.14
2022-08-25T08:16:50.144Z,59.90
2022-08-25T08:17:51.850Z,59.79
2022-08-25T08:18:54.177Z,59.58
2022-08-25T08:19:55.890Z,58.78
2022-08-25T08:20:57.892Z,58.73
2022-08-25T08:22:02.221Z,59.13
2022-08-25T08:23:04.349Z,60.05
2022-08-25T08:24:14.781Z,60.77
2022-08-25T08:25:27.472Z,62.44
2022-08-25T08:26:55.292Z,63.38
2022-08-25T08:27:54.818Z,64.23
2022-08-25T08:28:56.863Z,63.84
2022-08-25T08:29:58.669Z,63.16
2022-08-25T08:31:00.411Z,62.42
2022-08-25T08:32:03.349Z,61.38
2022-08-25T08:33:10.203Z,60.73
2022-08-25T08:34:13.474Z,60.59
2022-08-25T08:35:17.637Z,60.29
2022-08-25T08:36:19.518Z,60.13
2022-08-25T08:37:22.963Z,59.94
2022-08-25T08:38:27.116Z,59.18
2022-08-25T08:39:30.421Z,58.35
2022-08-25T08:41:09.510Z,58.37
2022-08-25T08:42:19.841Z,59.74
2022-08-25T08:43:24.984Z,61.01
2022-08-25T08:44:44.137Z,61.75
2022-08-25T08:45:53.110Z,62.73
2022-08-25T08:47:29.849Z,64.41
2022-08-25T08:49:00.364Z,64.90
2022-08-25T08:50:28.157Z,63.86
2022-08-25T08:51:47.821Z,62.79
2022-08-25T08:52:56.406Z,62.06
2022-08-25T08:54:15.570Z,61.65
2022-08-25T08:56:05.818Z,60.72
2022-08-25T08:57:19.547Z,59.90
2022-08-25T08:58:26.177Z,59.70
2022-08-25T08:59:41.838Z,59.44
2022-08-25T09:00:52.614Z,58.93
2022-08-25T09:02:06.035Z,59.31
2022-08-25T09:03:39.928Z,60.36
2022-08-25T09:05:03.536Z,62.07
2022-08-25T09:06:20.306Z,63.45
2022-08-25T09:07:35.697Z,63.12
2022-08-25T09:08:39.472Z,62.30
2022-08-25T09:09:46.525Z,61.32
2022-08-25T09:10:58.545Z,60.64
2022-08-25T09:12:37.439Z,59.89
2022-08-25T09:14:30.478Z,59.69
2022-08-25T09:16:22.412Z,58.49
2022-08-25T09:18:23.453Z,58.38
2022-08-25T09:20:05.704Z,59.91
2022-08-25T09:22:04.682Z,61.94
2022-08-25T09:23:32.036Z,63.90
2022-08-25T09:24:51.852Z,63.87
2022-08-25T09:26:14.793Z,63.09
2022-08-25T09:27:35.771Z,61.54
2022-08-25T09:28:51.123Z,60.69
2022-08-25T09:30:05.337Z,59.51
2022-08-25T09:31:29.667Z,58.51
2022-08-25T09:32:38.931Z,58.24
2022-08-25T09:33:41.601Z,58.88
2022-08-25T09:34:47.467Z,60.19
2022-08-25T09:35:53.633Z,61.37
2022-08-25T09:36:56.359Z,61.99
2022-08-25T09:38:05.535Z,62.86
2022-08-25T09:39:07.852Z,64.16
2022-08-25T09:40:12.075Z,64.24
2022-08-25T09:41:18.170Z,63.09
2022-08-25T09:42:23.907Z,61.98
2022-08-25T09:43:28.721Z,61.21
2022-08-25T09:44:38.738Z,60.18
2022-08-25T09:45:48.217Z,59.10
2022-08-25T09:47:04.835Z,58.92
2022-08-25T09:48:26.922Z,59.34
2022-08-25T09:49:39.315Z,60.35
2022-08-25T09:50:46.618Z,61.25
2022-08-25T09:51:48.557Z,62.29
2022-08-25T09:52:54.443Z,63.60
2022-08-25T09:53:59.723Z,63.96
2022-08-25T09:55:04.384Z,63.39
2022-08-25T09:56:07.520Z,62.05
2022-08-25T09:57:30.186Z,60.82
2022-08-25T09:58:32.574Z,60.25
2022-08-25T09:59:37.375Z,59.55
2022-08-25T10:00:39.086Z,58.52
2022-08-25T10:01:54.578Z,58.14
2022-08-25T10:03:22.775Z,58.41
2022-08-25T10:04:40.081Z,59.86
2022-08-25T10:06:01.462Z,60.91
2022-08-25T10:07:22.162Z,61.89
2022-08-25T10:08:51.799Z,62.45
2022-08-25T10:10:04.231Z,63.02
2022-08-25T10:11:12.995Z,62.62
2022-08-25T10:12:44.716Z,61.75
2022-08-25T10:14:02.725Z,60.57
2022-08-25T10:15:33.392Z,59.46
2022-08-25T10:16:36.104Z,58.57
2022-08-25T10:17:38.511Z,58.26
2022-08-25T10:18:41.140Z,58.11
2022-08-25T10:19:44.579Z,58.15
2022-08-25T10:21:02.660Z,58.98
2022-08-25T10:22:12.027Z,58.98
2022-08-25T10:23:15.058Z,59.69
2022-08-25T10:24:17.241Z,60.61
2022-08-25T10:25:31.071Z,61.66
2022-08-25T10:26:47.942Z,62.56
2022-08-25T10:28:21.086Z,63.51
2022-08-25T10:29:28.928Z,62.28
2022-08-25T10:30:33.476Z,60.90
2022-08-25T10:31:51.888Z,60.26
2022-08-25T10:33:11.835Z,59.46
2022-08-25T10:34:35.839Z,57.38
2022-08-25T10:35:59.502Z,56.56
2022-08-25T10:37:26.779Z,57.33
2022-08-25T10:38:42.929Z,58.18
2022-08-25T10:39:57.969Z,58.92
2022-08-25T10:41:07.316Z,59.33
2022-08-25T10:42:13.099Z,59.80
2022-08-25T10:43:33.856Z,60.32
2022-08-25T10:45:23.402Z,60.56
2022-08-25T10:46:56.619Z,61.55
2022-08-25T10:48:33.243Z,61.80
2022-08-25T10:49:47.435Z,62.61
2022-08-25T10:50:54.406Z,64.07
2022-08-25T10:52:04.090Z,63.51
2022-08-25T10:53:46.369Z,62.67
2022-08-25T10:55:24.460Z,60.56
2022-08-25T10:56:40.951Z,58.24
2022-08-25T10:57:55.638Z,55.93
2022-08-25T10:59:20.457Z,55.71
2022-08-25T11:00:31.296Z,56.12
2022-08-25T11:02:13.985Z,57.09
2022-08-25T11:03:43.782Z,58.18
2022-08-25T11:05:12.539Z,58.73
2022-08-25T11:06:26.425Z,58.88
2022-08-25T11:07:35.677Z,59.10
2022-08-25T11:08:49.316Z,59.50
2022-08-25T11:09:57.762Z,59.81
2022-08-25T11:11:05.869Z,58.71
2022-08-25T11:12:16.420Z,58.39
2022-08-25T11:13:46.542Z,58.33
2022-08-25T11:14:57.142Z,58.46
2022-08-25T11:16:17.445Z,58.66
2022-08-25T11:17:51.595Z,58.78
2022-08-25T11:19:05.475Z,59.93
2022-08-25T11:20:15.618Z,60.28
2022-08-25T11:21:37.414Z,60.07
2022-08-25T11:22:55.978Z,60.63
2022-08-25T11:24:25.404Z,60.63
2022-08-25T11:25:38.023Z,60.89
2022-08-25T11:26:49.773Z,59.16
2022-08-25T11:28:03.746Z,59.10
2022-08-25T11:29:17.261Z,59.58
2022-08-25T11:30:20.134Z,58.59
2022-08-25T11:31:24.718Z,58.16
2022-08-25T11:32:26.813Z,58.17
2022-08-25T11:33:31.036Z,58.40
2022-08-25T11:34:37.164Z,58.40
2022-08-25T11:35:53.480Z,58.71
2022-08-25T11:37:01.151Z,58.48
2022-08-25T11:38:16.557Z,58.82
2022-08-25T11:39:59.909Z,59.05
2022-08-25T11:41:38.838Z,59.03
2022-08-25T11:43:04.082Z,58.64
2022-08-25T11:44:50.135Z,58.65
2022-08-25T11:46:23.640Z,57.76
2022-08-25T11:47:51.267Z,58.33
2022-08-25T11:49:14.525Z,58.63
2022-08-25T11:50:35.352Z,58.31
2022-08-25T11:51:45.183Z,57.70
2022-08-25T11:52:54.029Z,58.23
2022-08-25T11:54:20.826Z,57.86
2022-08-25T11:55:29.988Z,57.28
2022-08-25T11:56:40.049Z,57.02
2022-08-25T11:57:45.106Z,57.04
2022-08-25T11:58:50.817Z,56.97
2022-08-25T11:59:52.372Z,56.82
2022-08-25T12:00:55.854Z,56.92
2022-08-25T12:01:57.385Z,56.12
2022-08-25T12:03:01.612Z,56.24
2022-08-25T12:04:42.236Z,56.32
2022-08-25T12:06:12.225Z,57.15
2022-08-25T12:07:24.153Z,57.04
2022-08-25T12:08:47.982Z,56.76
2022-08-25T12:09:53.732Z,55.73
2022-08-25T12:11:04.338Z,56.31
2022-08-25T12:12:38.315Z,56.00
2022-08-25T12:13:48.531Z,55.71
2022-08-25T12:14:51.749Z,56.33
2022-08-25T12:15:57.433Z,55.65
2022-08-25T12:17:00.395Z,55.03
2022-08-25T12:18:45.998Z,55.25
2022-08-25T12:19:52.704Z,55.81
2022-08-25T12:20:55.104Z,56.26
2022-08-25T12:22:03.420Z,56.54
2022-08-25T12:23:06.943Z,56.20
2022-08-25T12:24:12.897Z,55.83
2022-08-25T12:25:34.112Z,55.43
2022-08-25T12:26:52.628Z,54.50
2022-08-25T12:28:16.029Z,54.15
2022-08-25T12:29:41.529Z,53.75
2022-08-25T12:30:57.200Z,53.65
2022-08-25T12:32:06.929Z,53.68
2022-08-25T12:33:23.488Z,53.73
2022-08-25T12:34:34.090Z,53.72
2022-08-25T12:35:55.745Z,53.56
2022-08-25T12:37:06.403Z,53.48
2022-08-25T12:38:16.890Z,53.85
2022-08-25T12:39:34.589Z,54.27
2022-08-25T12:40:43.142Z,53.52
2022-08-25T12:41:58.315Z,52.06
2022-08-25T12:43:12.309Z,52.06
2022-08-25T12:44:35.574Z,50.92
2022-08-25T12:45:42.321Z,50.05
2022-08-25T12:46:44.643Z,48.99
2022-08-25T12:47:49.013Z,49.31
2022-08-25T12:48:57.817Z,49.60
2022-08-25T12:50:29.881Z,50.03
2022-08-25T12:51:48.547Z,50.29
2022-08-25T12:52:53.476Z,49.30
2022-08-25T12:54:22.518Z,49.31
2022-08-25T12:55:27.021Z,48.17
2022-08-25T12:56:39.053Z,48.39
2022-08-25T12:57:46.150Z,48.06
2022-08-25T12:59:02.706Z,47.66
2022-08-25T13:00:20.257Z,47.48
2022-08-25T13:01:35.874Z,46.86
2022-08-25T13:03:09.983Z,46.76
2022-08-25T13:04:39.086Z,46.18
2022-08-25T13:06:02.125Z,45.97
2022-08-25T13:07:29.659Z,46.52
2022-08-25T13:08:48.063Z,46.48
2022-08-25T13:09:58.620Z,46.30
2022-08-25T13:11:04.958Z,45.50
2022-08-25T13:12:21.950Z,45.41
2022-08-25T13:13:49.033Z,45.06
2022-08-25T13:14:57.403Z,43.93
2022-08-25T13:16:25.715Z,43.29
2022-08-25T13:17:34.794Z,43.05
2022-08-25T13:18:39.157Z,42.92
2022-08-25T13:19:41.564Z,43.36
2022-08-25T13:20:44.241Z,43.99
2022-08-25T13:21:49.230Z,43.72
2022-08-25T13:22:57.738Z,43.53
2022-08-25T13:24:05.237Z,43.06
2022-08-25T13:25:15.907Z,43.19
2022-08-25T13:26:31.599Z,43.43
2022-08-25T13:27:37.268Z,43.14
2022-08-25T13:28:42.108Z,43.16
2022-08-25T13:29:55.813Z,41.87
2022-08-25T13:31:04.765Z,43.10
2022-08-25T13:32:13.050Z,42.83
2022-08-25T13:33:20.615Z,41.98
2022-08-25T13:34:34.980Z,42.09
2022-08-25T13:35:37.291Z,42.64
2022-08-25T13:37:03.709Z,43.29
2022-08-25T13:38:19.489Z,41.73
2022-08-25T13:39:45.503Z,41.44
2022-08-25T13:40:47.112Z,41.58
2022-08-25T13:41:55.441Z,41.17
2022-08-25T13:43:05.545Z,41.19
2022-08-25T13:44:07.455Z,41.41
2022-08-25T13:45:23.909Z,41.38
2022-08-25T13:46:25.729Z,41.55
2022-08-25T13:47:43.502Z,40.99
2022-08-25T13:48:49.384Z,41.13
2022-08-25T13:49:51.735Z,41.32
2022-08-25T13:51:23.746Z,41.49
2022-08-25T13:52:29.283Z,40.80
2022-08-25T13:53:31.733Z,40.78
2022-08-25T13:54:42.142Z,40.39
2022-08-25T13:55:57.195Z,40.20
2022-08-25T13:57:21.533Z,40.39
2022-08-25T13:58:39.084Z,40.27
2022-08-25T13:59:52.203Z,40.29
2022-08-25T14:01:31.447Z,40.48
2022-08-25T14:02:49.924Z,40.69
2022-08-25T14:03:54.339Z,40.43
2022-08-25T14:04:56.046Z,40.43
2022-08-25T14:06:05.662Z,40.24
2022-08-25T14:07:11.871Z,40.36
2022-08-25T14:08:36.349Z,39.82
2022-08-25T14:09:57.037Z,38.60
2022-08-25T14:11:30.913Z,38.16
2022-08-25T14:12:44.900Z,37.13
2022-08-25T14:13:46.905Z,37.05
2022-08-25T14:14:59.274Z,36.99
2022-08-25T14:16:09.153Z,37.46
2022-08-25T14:17:36.355Z,37.64
2022-08-25T14:18:58.842Z,37.50
2022-08-25T14:20:01.493Z,37.81
2022-08-25T14:21:11.095Z,37.06
2022-08-25T14:22:14.609Z,36.70
2022-08-25T14:23:22.168Z,37.20
2022-08-25T14:24:24.317Z,37.15
2022-08-25T14:25:31.265Z,36.91
2022-08-25T14:26:32.932Z,36.48
2022-08-25T14:27:38.960Z,36.28
2022-08-25T14:28:52.988Z,35.75
2022-08-25T14:29:54.682Z,35.70
2022-08-25T14:31:02.310Z,35.45
2022-08-25T14:32:07.102Z,35.03
2022-08-25T14:33:12.422Z,34.79
2022-08-25T14:34:22.219Z,34.64
2022-08-25T14:35:25.887Z,34.35
2022-08-25T14:36:30.705Z,34.16